sensor_id;sensor_type;location;lat;lon;timestamp;P1;durP1;ratioP1;P2;durP2;ratioP2
68690;SDS011;55675;49.588;8.640;2023-05-29T00:00:32;2.00;;;1.80;;
68690;SDS011;55675;49.588;8.640;2023-05-29T00:02:58;1.83;;;1.27;;
68690;SDS011;55675;49.588;8.640;2023-05-29T00:05:23;4.03;;;1.87;;
68690;SDS011;55675;49.588;8.640;2023-05-29T00:07:49;3.13;;;1.80;;
68690;SDS011;55675;49.588;8.640;2023-05-29T00:10:15;2.20;;;1.40;;
68690;SDS011;55675;49.588;8.640;2023-05-29T00:12:41;1.93;;;1.77;;
68690;SDS011;55675;49.588;8.640;2023-05-29T00:15:06;2.80;;;1.70;;
68690;SDS011;55675;49.588;8.640;2023-05-29T00:17:33;3.20;;;1.53;;
68690;SDS011;55675;49.588;8.640;2023-05-29T00:19:59;3.00;;;1.40;;
68690;SDS011;55675;49.588;8.640;2023-05-29T00:22:26;2.17;;;1.70;;
68690;SDS011;55675;49.588;8.640;2023-05-29T00:24:52;1.53;;;1.43;;
68690;SDS011;55675;49.588;8.640;2023-05-29T00:27:18;4.17;;;1.63;;
68690;SDS011;55675;49.588;8.640;2023-05-29T00:29:43;2.47;;;1.40;;
68690;SDS011;55675;49.588;8.640;2023-05-29T00:32:10;1.70;;;1.40;;
68690;SDS011;55675;49.588;8.640;2023-05-29T00:34:35;1.57;;;1.30;;
68690;SDS011;55675;49.588;8.640;2023-05-29T00:37:01;2.17;;;1.50;;
68690;SDS011;55675;49.588;8.640;2023-05-29T00:39:26;3.30;;;1.40;;
68690;SDS011;55675;49.588;8.640;2023-05-29T00:41:52;1.70;;;1.20;;
68690;SDS011;55675;49.588;8.640;2023-05-29T00:44:18;1.37;;;1.17;;
68690;SDS011;55675;49.588;8.640;2023-05-29T00:46:44;3.30;;;1.43;;
68690;SDS011;55675;49.588;8.640;2023-05-29T00:49:11;2.50;;;1.70;;
68690;SDS011;55675;49.588;8.640;2023-05-29T00:51:38;2.83;;;1.63;;
68690;SDS011;55675;49.588;8.640;2023-05-29T00:54:04;1.20;;;1.10;;
68690;SDS011;55675;49.588;8.640;2023-05-29T00:56:32;1.83;;;1.73;;
68690;SDS011;55675;49.588;8.640;2023-05-29T00:59:00;2.30;;;1.80;;
68690;SDS011;55675;49.588;8.640;2023-05-29T01:01:25;2.20;;;1.67;;
68690;SDS011;55675;49.588;8.640;2023-05-29T01:03:51;1.40;;;1.23;;
68690;SDS011;55675;49.588;8.640;2023-05-29T01:06:22;2.43;;;1.70;;
68690;SDS011;55675;49.588;8.640;2023-05-29T01:08:48;2.10;;;1.57;;
68690;SDS011;55675;49.588;8.640;2023-05-29T01:13:57;3.30;;;1.87;;
68690;SDS011;55675;49.588;8.640;2023-05-29T01:16:35;2.73;;;1.83;;
68690;SDS011;55675;49.588;8.640;2023-05-29T01:22:29;4.83;;;1.77;;
68690;SDS011;55675;49.588;8.640;2023-05-29T01:25:11;1.90;;;1.40;;
68690;SDS011;55675;49.588;8.640;2023-05-29T01:27:58;2.20;;;1.50;;
68690;SDS011;55675;49.588;8.640;2023-05-29T01:30:27;3.17;;;1.77;;
68690;SDS011;55675;49.588;8.640;2023-05-29T01:32:54;2.90;;;1.70;;
68690;SDS011;55675;49.588;8.640;2023-05-29T01:35:20;1.47;;;1.37;;
68690;SDS011;55675;49.588;8.640;2023-05-29T01:37:45;3.30;;;1.63;;
68690;SDS011;55675;49.588;8.640;2023-05-29T01:40:11;3.00;;;1.60;;
68690;SDS011;55675;49.588;8.640;2023-05-29T01:42:37;4.27;;;1.97;;
68690;SDS011;55675;49.588;8.640;2023-05-29T01:45:04;2.13;;;1.40;;
68690;SDS011;55675;49.588;8.640;2023-05-29T01:47:31;1.53;;;1.33;;
68690;SDS011;55675;49.588;8.640;2023-05-29T01:49:57;2.37;;;1.43;;
68690;SDS011;55675;49.588;8.640;2023-05-29T01:52:23;1.70;;;1.60;;
68690;SDS011;55675;49.588;8.640;2023-05-29T01:54:49;2.80;;;1.83;;
68690;SDS011;55675;49.588;8.640;2023-05-29T01:57:15;2.10;;;1.30;;
68690;SDS011;55675;49.588;8.640;2023-05-29T01:59:41;2.47;;;2.20;;
68690;SDS011;55675;49.588;8.640;2023-05-29T02:02:07;3.63;;;1.77;;
68690;SDS011;55675;49.588;8.640;2023-05-29T02:04:33;1.80;;;1.47;;
68690;SDS011;55675;49.588;8.640;2023-05-29T02:06:59;2.53;;;1.40;;
68690;SDS011;55675;49.588;8.640;2023-05-29T02:09:24;1.40;;;1.30;;
68690;SDS011;55675;49.588;8.640;2023-05-29T02:11:50;1.70;;;1.60;;
68690;SDS011;55675;49.588;8.640;2023-05-29T02:14:16;1.53;;;1.37;;
68690;SDS011;55675;49.588;8.640;2023-05-29T02:16:41;1.50;;;1.40;;
68690;SDS011;55675;49.588;8.640;2023-05-29T02:19:08;2.57;;;1.53;;
68690;SDS011;55675;49.588;8.640;2023-05-29T02:21:37;2.47;;;1.40;;
68690;SDS011;55675;49.588;8.640;2023-05-29T02:24:03;2.50;;;1.57;;
68690;SDS011;55675;49.588;8.640;2023-05-29T02:26:29;4.13;;;1.90;;
68690;SDS011;55675;49.588;8.640;2023-05-29T02:28:54;1.47;;;1.33;;
68690;SDS011;55675;49.588;8.640;2023-05-29T02:31:20;1.70;;;1.60;;
68690;SDS011;55675;49.588;8.640;2023-05-29T02:33:46;2.33;;;1.40;;
68690;SDS011;55675;49.588;8.640;2023-05-29T02:36:12;3.23;;;1.70;;
68690;SDS011;55675;49.588;8.640;2023-05-29T02:38:38;1.50;;;1.37;;
68690;SDS011;55675;49.588;8.640;2023-05-29T02:41:05;1.63;;;1.53;;
68690;SDS011;55675;49.588;8.640;2023-05-29T02:43:30;2.67;;;1.33;;
68690;SDS011;55675;49.588;8.640;2023-05-29T02:45:56;1.80;;;1.33;;
68690;SDS011;55675;49.588;8.640;2023-05-29T02:48:21;1.77;;;1.57;;
68690;SDS011;55675;49.588;8.640;2023-05-29T02:50:47;1.57;;;1.40;;
68690;SDS011;55675;49.588;8.640;2023-05-29T02:53:12;1.50;;;1.40;;
68690;SDS011;55675;49.588;8.640;2023-05-29T02:55:38;3.20;;;1.53;;
68690;SDS011;55675;49.588;8.640;2023-05-29T02:58:03;2.93;;;1.63;;
68690;SDS011;55675;49.588;8.640;2023-05-29T03:00:29;1.53;;;1.40;;
68690;SDS011;55675;49.588;8.640;2023-05-29T03:02:54;1.73;;;1.20;;
68690;SDS011;55675;49.588;8.640;2023-05-29T03:05:20;1.77;;;1.57;;
68690;SDS011;55675;49.588;8.640;2023-05-29T03:07:46;3.27;;;1.50;;
68690;SDS011;55675;49.588;8.640;2023-05-29T03:10:11;2.37;;;1.60;;
68690;SDS011;55675;49.588;8.640;2023-05-29T03:12:37;1.77;;;1.60;;
68690;SDS011;55675;49.588;8.640;2023-05-29T03:15:04;4.17;;;1.60;;
68690;SDS011;55675;49.588;8.640;2023-05-29T03:17:30;3.03;;;1.80;;
68690;SDS011;55675;49.588;8.640;2023-05-29T03:19:56;2.07;;;1.57;;
68690;SDS011;55675;49.588;8.640;2023-05-29T03:22:22;2.93;;;1.60;;
68690;SDS011;55675;49.588;8.640;2023-05-29T03:24:47;2.73;;;2.10;;
68690;SDS011;55675;49.588;8.640;2023-05-29T03:27:13;4.40;;;1.83;;
68690;SDS011;55675;49.588;8.640;2023-05-29T03:29:39;1.90;;;1.60;;
68690;SDS011;55675;49.588;8.640;2023-05-29T03:32:04;2.20;;;1.67;;
68690;SDS011;55675;49.588;8.640;2023-05-29T03:34:30;1.50;;;1.40;;
68690;SDS011;55675;49.588;8.640;2023-05-29T03:36:56;3.47;;;2.00;;
68690;SDS011;55675;49.588;8.640;2023-05-29T03:39:22;3.57;;;1.70;;
68690;SDS011;55675;49.588;8.640;2023-05-29T03:41:47;1.70;;;1.30;;
68690;SDS011;55675;49.588;8.640;2023-05-29T03:44:13;1.80;;;1.70;;
68690;SDS011;55675;49.588;8.640;2023-05-29T03:46:38;2.10;;;1.83;;
68690;SDS011;55675;49.588;8.640;2023-05-29T03:49:04;2.53;;;1.67;;
68690;SDS011;55675;49.588;8.640;2023-05-29T03:51:32;5.17;;;1.43;;
68690;SDS011;55675;49.588;8.640;2023-05-29T03:53:57;2.57;;;1.53;;
68690;SDS011;55675;49.588;8.640;2023-05-29T03:56:23;1.43;;;1.33;;
68690;SDS011;55675;49.588;8.640;2023-05-29T03:58:49;1.60;;;1.40;;
68690;SDS011;55675;49.588;8.640;2023-05-29T04:01:15;2.40;;;1.50;;
68690;SDS011;55675;49.588;8.640;2023-05-29T04:03:40;1.77;;;1.60;;
68690;SDS011;55675;49.588;8.640;2023-05-29T04:06:07;3.03;;;1.60;;
68690;SDS011;55675;49.588;8.640;2023-05-29T04:08:33;3.27;;;1.70;;
68690;SDS011;55675;49.588;8.640;2023-05-29T04:10:58;1.60;;;1.43;;
68690;SDS011;55675;49.588;8.640;2023-05-29T04:13:24;5.80;;;1.97;;
68690;SDS011;55675;49.588;8.640;2023-05-29T04:15:49;2.13;;;1.93;;
68690;SDS011;55675;49.588;8.640;2023-05-29T04:18:18;3.27;;;1.57;;
68690;SDS011;55675;49.588;8.640;2023-05-29T04:20:44;1.88;;;1.63;;
68690;SDS011;55675;49.588;8.640;2023-05-29T04:23:12;7.53;;;2.27;;
68690;SDS011;55675;49.588;8.640;2023-05-29T04:25:37;1.90;;;1.70;;
68690;SDS011;55675;49.588;8.640;2023-05-29T04:28:03;2.70;;;1.90;;
68690;SDS011;55675;49.588;8.640;2023-05-29T04:30:29;1.87;;;1.50;;
68690;SDS011;55675;49.588;8.640;2023-05-29T04:32:55;3.20;;;1.50;;
68690;SDS011;55675;49.588;8.640;2023-05-29T04:35:22;1.83;;;1.63;;
68690;SDS011;55675;49.588;8.640;2023-05-29T04:37:48;1.90;;;1.60;;
68690;SDS011;55675;49.588;8.640;2023-05-29T04:40:13;3.13;;;1.53;;
68690;SDS011;55675;49.588;8.640;2023-05-29T04:42:42;2.03;;;1.80;;
68690;SDS011;55675;49.588;8.640;2023-05-29T04:45:09;2.20;;;1.70;;
68690;SDS011;55675;49.588;8.640;2023-05-29T04:47:38;2.37;;;1.60;;
68690;SDS011;55675;49.588;8.640;2023-05-29T04:50:11;2.17;;;1.70;;
68690;SDS011;55675;49.588;8.640;2023-05-29T04:52:37;2.17;;;1.63;;
68690;SDS011;55675;49.588;8.640;2023-05-29T04:55:03;3.27;;;1.77;;
68690;SDS011;55675;49.588;8.640;2023-05-29T04:57:29;2.60;;;1.67;;
68690;SDS011;55675;49.588;8.640;2023-05-29T04:59:55;2.33;;;1.80;;
68690;SDS011;55675;49.588;8.640;2023-05-29T05:02:21;2.93;;;1.80;;
68690;SDS011;55675;49.588;8.640;2023-05-29T05:04:46;3.47;;;1.53;;
68690;SDS011;55675;49.588;8.640;2023-05-29T05:07:12;3.40;;;1.60;;
68690;SDS011;55675;49.588;8.640;2023-05-29T05:09:40;2.70;;;1.67;;
68690;SDS011;55675;49.588;8.640;2023-05-29T05:12:07;4.63;;;1.87;;
68690;SDS011;55675;49.588;8.640;2023-05-29T05:14:32;1.60;;;1.50;;
68690;SDS011;55675;49.588;8.640;2023-05-29T05:16:58;2.60;;;1.67;;
68690;SDS011;55675;49.588;8.640;2023-05-29T05:19:23;3.60;;;1.53;;
68690;SDS011;55675;49.588;8.640;2023-05-29T05:21:49;2.30;;;1.73;;
68690;SDS011;55675;49.588;8.640;2023-05-29T05:24:14;2.90;;;1.60;;
68690;SDS011;55675;49.588;8.640;2023-05-29T05:26:40;1.93;;;1.70;;
68690;SDS011;55675;49.588;8.640;2023-05-29T05:29:05;2.27;;;1.70;;
68690;SDS011;55675;49.588;8.640;2023-05-29T05:31:31;2.50;;;1.87;;
68690;SDS011;55675;49.588;8.640;2023-05-29T05:33:56;3.07;;;1.80;;
68690;SDS011;55675;49.588;8.640;2023-05-29T05:36:22;2.47;;;1.60;;
68690;SDS011;55675;49.588;8.640;2023-05-29T05:38:48;3.67;;;1.80;;
68690;SDS011;55675;49.588;8.640;2023-05-29T05:41:13;3.10;;;1.80;;
68690;SDS011;55675;49.588;8.640;2023-05-29T05:43:39;3.03;;;1.80;;
68690;SDS011;55675;49.588;8.640;2023-05-29T05:46:05;1.67;;;1.53;;
68690;SDS011;55675;49.588;8.640;2023-05-29T05:48:30;2.47;;;1.70;;
68690;SDS011;55675;49.588;8.640;2023-05-29T05:50:56;2.03;;;1.83;;
68690;SDS011;55675;49.588;8.640;2023-05-29T05:53:21;2.53;;;1.83;;
68690;SDS011;55675;49.588;8.640;2023-05-29T05:55:47;2.20;;;1.67;;
68690;SDS011;55675;49.588;8.640;2023-05-29T05:58:12;4.23;;;2.10;;
68690;SDS011;55675;49.588;8.640;2023-05-29T06:00:39;2.20;;;1.50;;
68690;SDS011;55675;49.588;8.640;2023-05-29T06:03:05;2.97;;;1.57;;
68690;SDS011;55675;49.588;8.640;2023-05-29T06:05:30;2.97;;;1.83;;
68690;SDS011;55675;49.588;8.640;2023-05-29T06:07:56;3.27;;;2.00;;
68690;SDS011;55675;49.588;8.640;2023-05-29T06:10:22;2.20;;;1.50;;
68690;SDS011;55675;49.588;8.640;2023-05-29T06:12:47;3.17;;;2.23;;
68690;SDS011;55675;49.588;8.640;2023-05-29T06:15:13;2.40;;;1.70;;
68690;SDS011;55675;49.588;8.640;2023-05-29T06:17:39;2.67;;;1.67;;
68690;SDS011;55675;49.588;8.640;2023-05-29T06:20:05;3.33;;;1.87;;
68690;SDS011;55675;49.588;8.640;2023-05-29T06:22:35;2.17;;;1.80;;
68690;SDS011;55675;49.588;8.640;2023-05-29T06:25:01;2.00;;;1.70;;
68690;SDS011;55675;49.588;8.640;2023-05-29T06:27:27;3.13;;;1.67;;
68690;SDS011;55675;49.588;8.640;2023-05-29T06:29:52;1.33;;;1.23;;
68690;SDS011;55675;49.588;8.640;2023-05-29T06:32:17;4.33;;;1.90;;
68690;SDS011;55675;49.588;8.640;2023-05-29T06:34:43;2.90;;;1.63;;
68690;SDS011;55675;49.588;8.640;2023-05-29T06:37:08;3.17;;;1.80;;
68690;SDS011;55675;49.588;8.640;2023-05-29T06:39:34;2.17;;;1.53;;
68690;SDS011;55675;49.588;8.640;2023-05-29T06:42:00;1.63;;;1.50;;
68690;SDS011;55675;49.588;8.640;2023-05-29T06:44:26;2.70;;;1.47;;
68690;SDS011;55675;49.588;8.640;2023-05-29T06:46:52;1.97;;;1.77;;
68690;SDS011;55675;49.588;8.640;2023-05-29T06:49:17;1.73;;;1.60;;
68690;SDS011;55675;49.588;8.640;2023-05-29T06:51:43;1.80;;;1.60;;
68690;SDS011;55675;49.588;8.640;2023-05-29T06:54:09;2.37;;;1.67;;
68690;SDS011;55675;49.588;8.640;2023-05-29T06:56:35;2.17;;;1.40;;
68690;SDS011;55675;49.588;8.640;2023-05-29T06:59:00;3.13;;;2.00;;
68690;SDS011;55675;49.588;8.640;2023-05-29T07:01:26;1.90;;;1.30;;
68690;SDS011;55675;49.588;8.640;2023-05-29T07:03:52;1.77;;;1.50;;
68690;SDS011;55675;49.588;8.640;2023-05-29T07:06:18;1.60;;;1.50;;
68690;SDS011;55675;49.588;8.640;2023-05-29T07:08:43;2.03;;;1.60;;
68690;SDS011;55675;49.588;8.640;2023-05-29T07:11:09;1.93;;;1.50;;
68690;SDS011;55675;49.588;8.640;2023-05-29T07:13:34;1.50;;;1.40;;
68690;SDS011;55675;49.588;8.640;2023-05-29T07:16:00;2.80;;;1.70;;
68690;SDS011;55675;49.588;8.640;2023-05-29T07:18:26;1.33;;;1.20;;
68690;SDS011;55675;49.588;8.640;2023-05-29T07:20:51;2.10;;;1.60;;
68690;SDS011;55675;49.588;8.640;2023-05-29T07:23:18;2.10;;;1.73;;
68690;SDS011;55675;49.588;8.640;2023-05-29T07:25:44;2.23;;;1.80;;
68690;SDS011;55675;49.588;8.640;2023-05-29T07:28:09;4.03;;;1.60;;
68690;SDS011;55675;49.588;8.640;2023-05-29T07:30:35;2.33;;;1.77;;
68690;SDS011;55675;49.588;8.640;2023-05-29T07:33:00;2.03;;;1.83;;
68690;SDS011;55675;49.588;8.640;2023-05-29T07:35:26;2.10;;;1.43;;
68690;SDS011;55675;49.588;8.640;2023-05-29T07:37:51;1.80;;;1.70;;
68690;SDS011;55675;49.588;8.640;2023-05-29T07:40:19;2.70;;;1.70;;
68690;SDS011;55675;49.588;8.640;2023-05-29T07:42:44;1.77;;;1.67;;
68690;SDS011;55675;49.588;8.640;2023-05-29T07:45:10;2.57;;;1.60;;
68690;SDS011;55675;49.588;8.640;2023-05-29T07:47:36;1.90;;;1.80;;
68690;SDS011;55675;49.588;8.640;2023-05-29T07:50:01;4.27;;;1.70;;
68690;SDS011;55675;49.588;8.640;2023-05-29T07:52:27;1.40;;;1.30;;
68690;SDS011;55675;49.588;8.640;2023-05-29T07:54:53;3.83;;;1.37;;
68690;SDS011;55675;49.588;8.640;2023-05-29T07:57:18;2.20;;;1.43;;
68690;SDS011;55675;49.588;8.640;2023-05-29T07:59:44;1.73;;;1.50;;
68690;SDS011;55675;49.588;8.640;2023-05-29T08:02:10;2.60;;;1.60;;
68690;SDS011;55675;49.588;8.640;2023-05-29T08:04:35;1.50;;;1.40;;
68690;SDS011;55675;49.588;8.640;2023-05-29T08:07:02;2.73;;;1.60;;
68690;SDS011;55675;49.588;8.640;2023-05-29T08:09:30;1.90;;;1.80;;
68690;SDS011;55675;49.588;8.640;2023-05-29T08:11:56;1.60;;;1.50;;
68690;SDS011;55675;49.588;8.640;2023-05-29T08:14:21;3.13;;;1.53;;
68690;SDS011;55675;49.588;8.640;2023-05-29T08:16:47;2.00;;;1.57;;
68690;SDS011;55675;49.588;8.640;2023-05-29T08:19:13;2.20;;;1.60;;
68690;SDS011;55675;49.588;8.640;2023-05-29T08:21:38;1.67;;;1.57;;
68690;SDS011;55675;49.588;8.640;2023-05-29T08:24:04;3.67;;;1.70;;
68690;SDS011;55675;49.588;8.640;2023-05-29T08:26:30;2.20;;;1.60;;
68690;SDS011;55675;49.588;8.640;2023-05-29T08:28:56;2.17;;;1.77;;
68690;SDS011;55675;49.588;8.640;2023-05-29T08:31:21;2.63;;;1.50;;
68690;SDS011;55675;49.588;8.640;2023-05-29T08:33:50;2.37;;;1.90;;
68690;SDS011;55675;49.588;8.640;2023-05-29T08:36:16;3.50;;;1.80;;
68690;SDS011;55675;49.588;8.640;2023-05-29T08:38:42;4.03;;;1.70;;
68690;SDS011;55675;49.588;8.640;2023-05-29T08:41:08;2.50;;;1.50;;
68690;SDS011;55675;49.588;8.640;2023-05-29T08:43:39;2.40;;;1.57;;
68690;SDS011;55675;49.588;8.640;2023-05-29T08:46:07;1.97;;;1.67;;
68690;SDS011;55675;49.588;8.640;2023-05-29T08:48:32;12.33;;;11.20;;
68690;SDS011;55675;49.588;8.640;2023-05-29T09:15:30;333.15;;;306.92;;
68690;SDS011;55675;49.588;8.640;2023-05-29T09:17:57;8.13;;;7.40;;
68690;SDS011;55675;49.588;8.640;2023-05-29T09:20:23;1.87;;;1.70;;
68690;SDS011;55675;49.588;8.640;2023-05-29T09:25:20;75.03;;;70.03;;
68690;SDS011;55675;49.588;8.640;2023-05-29T09:27:48;970.80;;;903.70;;
68690;SDS011;55675;49.588;8.640;2023-05-29T09:33:04;1001.60;;;937.03;;
68690;SDS011;55675;49.588;8.640;2023-05-29T09:35:38;977.75;;;902.90;;
68690;SDS011;55675;49.588;8.640;2023-05-29T09:38:06;1072.70;;;999.73;;
68690;SDS011;55675;49.588;8.640;2023-05-29T09:40:32;916.70;;;851.20;;
68690;SDS011;55675;49.588;8.640;2023-05-29T09:43:10;1026.20;;;960.00;;
68690;SDS011;55675;49.588;8.640;2023-05-29T09:45:36;1033.23;;;966.40;;
68690;SDS011;55675;49.588;8.640;2023-05-29T09:48:03;1052.20;;;984.07;;
68690;SDS011;55675;49.588;8.640;2023-05-29T09:50:29;1065.63;;;996.20;;
68690;SDS011;55675;49.588;8.640;2023-05-29T09:52:56;1067.37;;;997.40;;
68690;SDS011;55675;49.588;8.640;2023-05-29T09:55:25;1042.13;;;974.30;;
68690;SDS011;55675;49.588;8.640;2023-05-29T09:57:53;1056.37;;;987.73;;
68690;SDS011;55675;49.588;8.640;2023-05-29T10:00:22;927.77;;;864.27;;
68690;SDS011;55675;49.588;8.640;2023-05-29T10:02:48;1040.23;;;973.07;;
68690;SDS011;55675;49.588;8.640;2023-05-29T10:05:14;1067.33;;;998.33;;
68690;SDS011;55675;49.588;8.640;2023-05-29T10:07:43;1055.97;;;985.93;;
68690;SDS011;55675;49.588;8.640;2023-05-29T10:10:13;1016.70;;;950.13;;
68690;SDS011;55675;49.588;8.640;2023-05-29T10:12:44;1088.93;;;999.90;;
68690;SDS011;55675;49.588;8.640;2023-05-29T10:15:12;1076.60;;;999.90;;
68690;SDS011;55675;49.588;8.640;2023-05-29T10:18:03;972.13;;;906.97;;
68690;SDS011;55675;49.588;8.640;2023-05-29T10:20:29;1032.83;;;965.30;;
68690;SDS011;55675;49.588;8.640;2023-05-29T10:22:58;818.90;;;762.30;;
68690;SDS011;55675;49.588;8.640;2023-05-29T10:25:26;351.13;;;325.13;;
68690;SDS011;55675;49.588;8.640;2023-05-29T10:27:54;1.97;;;1.43;;
68690;SDS011;55675;49.588;8.640;2023-05-29T10:30:25;152.17;;;139.57;;
68690;SDS011;55675;49.588;8.640;2023-05-29T10:35:31;688.80;;;641.97;;
68690;SDS011;55675;49.588;8.640;2023-05-29T10:38:09;2.23;;;1.53;;
68690;SDS011;55675;49.588;8.640;2023-05-29T10:40:42;224.13;;;208.50;;
68690;SDS011;55675;49.588;8.640;2023-05-29T10:43:07;1005.70;;;938.33;;
68690;SDS011;55675;49.588;8.640;2023-05-29T10:50:36;460.97;;;432.00;;
68690;SDS011;55675;49.588;8.640;2023-05-29T10:53:03;3.60;;;1.80;;
68690;SDS011;55675;49.588;8.640;2023-05-29T10:55:34;13.67;;;12.63;;
68690;SDS011;55675;49.588;8.640;2023-05-29T11:00:33;1179.38;;;999.90;;
68690;SDS011;55675;49.588;8.640;2023-05-29T11:03:06;1150.50;;;999.90;;
68690;SDS011;55675;49.588;8.640;2023-05-29T11:05:32;898.78;;;836.50;;
68690;SDS011;55675;49.588;8.640;2023-05-29T11:07:59;1137.70;;;999.90;;
68690;SDS011;55675;49.588;8.640;2023-05-29T11:13:09;1062.60;;;991.00;;
68690;SDS011;55675;49.588;8.640;2023-05-29T11:15:34;1125.60;;;999.90;;
68690;SDS011;55675;49.588;8.640;2023-05-29T11:18:06;1120.23;;;999.90;;
68690;SDS011;55675;49.588;8.640;2023-05-29T13:54:51;1.80;;;1.57;;
68690;SDS011;55675;49.588;8.640;2023-05-29T13:57:17;1.65;;;1.55;;
68690;SDS011;55675;49.588;8.640;2023-05-29T13:59:43;1.77;;;1.67;;
68690;SDS011;55675;49.588;8.640;2023-05-29T14:02:08;2.03;;;1.83;;
68690;SDS011;55675;49.588;8.640;2023-05-29T14:04:34;2.22;;;1.67;;
68690;SDS011;55675;49.588;8.640;2023-05-29T14:07:00;1.90;;;1.80;;
68690;SDS011;55675;49.588;8.640;2023-05-29T14:09:25;2.40;;;2.15;;
68690;SDS011;55675;49.588;8.640;2023-05-29T14:11:56;1.80;;;1.42;;
68690;SDS011;55675;49.588;8.640;2023-05-29T14:14:24;1.80;;;1.70;;
68690;SDS011;55675;49.588;8.640;2023-05-29T14:16:51;1.73;;;1.63;;
68690;SDS011;55675;49.588;8.640;2023-05-29T14:19:17;2.20;;;1.50;;
68690;SDS011;55675;49.588;8.640;2023-05-29T14:21:45;1.70;;;1.60;;
68690;SDS011;55675;49.588;8.640;2023-05-29T14:24:11;2.13;;;1.90;;
68690;SDS011;55675;49.588;8.640;2023-05-29T14:26:37;1.40;;;1.40;;
68690;SDS011;55675;49.588;8.640;2023-05-29T14:29:03;1.20;;;1.20;;
68690;SDS011;55675;49.588;8.640;2023-05-29T14:31:29;1.60;;;1.50;;
68690;SDS011;55675;49.588;8.640;2023-05-29T14:33:57;2.03;;;1.80;;
68690;SDS011;55675;49.588;8.640;2023-05-29T14:36:26;1.65;;;1.55;;
68690;SDS011;55675;49.588;8.640;2023-05-29T14:38:52;2.03;;;1.70;;
68690;SDS011;55675;49.588;8.640;2023-05-29T14:41:17;1.50;;;1.40;;
68690;SDS011;55675;49.588;8.640;2023-05-29T14:43:43;1.50;;;1.40;;
68690;SDS011;55675;49.588;8.640;2023-05-29T14:46:09;2.03;;;1.60;;
68690;SDS011;55675;49.588;8.640;2023-05-29T14:48:35;1.27;;;1.25;;
68690;SDS011;55675;49.588;8.640;2023-05-29T14:51:01;1.50;;;1.40;;
68690;SDS011;55675;49.588;8.640;2023-05-29T14:53:27;1.50;;;1.40;;
68690;SDS011;55675;49.588;8.640;2023-05-29T14:55:52;1.83;;;1.70;;
68690;SDS011;55675;49.588;8.640;2023-05-29T14:58:21;1.83;;;1.40;;
68690;SDS011;55675;49.588;8.640;2023-05-29T15:00:47;2.45;;;1.60;;
68690;SDS011;55675;49.588;8.640;2023-05-29T15:03:12;1.70;;;1.60;;
68690;SDS011;55675;49.588;8.640;2023-05-29T15:05:38;1.70;;;1.60;;
68690;SDS011;55675;49.588;8.640;2023-05-29T15:08:03;1.40;;;1.30;;
68690;SDS011;55675;49.588;8.640;2023-05-29T15:10:29;1.90;;;1.80;;
68690;SDS011;55675;49.588;8.640;2023-05-29T15:12:55;1.85;;;1.73;;
68690;SDS011;55675;49.588;8.640;2023-05-29T15:15:24;1.73;;;1.63;;
68690;SDS011;55675;49.588;8.640;2023-05-29T15:17:50;1.88;;;1.77;;
68690;SDS011;55675;49.588;8.640;2023-05-29T15:20:20;2.25;;;2.05;;
68690;SDS011;55675;49.588;8.640;2023-05-29T15:22:47;1.58;;;1.48;;
68690;SDS011;55675;49.588;8.640;2023-05-29T15:25:13;1.65;;;1.55;;
68690;SDS011;55675;49.588;8.640;2023-05-29T15:27:39;1.77;;;1.50;;
68690;SDS011;55675;49.588;8.640;2023-05-29T15:30:09;1.90;;;1.80;;
68690;SDS011;55675;49.588;8.640;2023-05-29T15:32:35;2.00;;;1.90;;
68690;SDS011;55675;49.588;8.640;2023-05-29T15:35:02;1.75;;;1.65;;
68690;SDS011;55675;49.588;8.640;2023-05-29T15:37:28;1.92;;;1.80;;
68690;SDS011;55675;49.588;8.640;2023-05-29T15:39:55;2.10;;;1.90;;
68690;SDS011;55675;49.588;8.640;2023-05-29T15:42:21;4.45;;;3.92;;
68690;SDS011;55675;49.588;8.640;2023-05-29T15:44:46;1.83;;;1.55;;
68690;SDS011;55675;49.588;8.640;2023-05-29T15:47:12;2.05;;;1.80;;
68690;SDS011;55675;49.588;8.640;2023-05-29T15:49:37;2.47;;;1.70;;
68690;SDS011;55675;49.588;8.640;2023-05-29T15:52:03;2.45;;;1.92;;
68690;SDS011;55675;49.588;8.640;2023-05-29T15:54:29;2.67;;;1.70;;
68690;SDS011;55675;49.588;8.640;2023-05-29T15:56:54;1.83;;;1.73;;
68690;SDS011;55675;49.588;8.640;2023-05-29T15:59:20;1.80;;;1.70;;
68690;SDS011;55675;49.588;8.640;2023-05-29T16:01:46;2.17;;;2.00;;
68690;SDS011;55675;49.588;8.640;2023-05-29T16:04:11;2.58;;;1.90;;
68690;SDS011;55675;49.588;8.640;2023-05-29T16:06:38;2.10;;;1.90;;
68690;SDS011;55675;49.588;8.640;2023-05-29T16:09:03;2.22;;;1.98;;
68690;SDS011;55675;49.588;8.640;2023-05-29T16:11:29;2.75;;;1.90;;
68690;SDS011;55675;49.588;8.640;2023-05-29T16:13:54;1.90;;;1.80;;
68690;SDS011;55675;49.588;8.640;2023-05-29T16:16:20;2.33;;;2.10;;
68690;SDS011;55675;49.588;8.640;2023-05-29T16:18:46;2.17;;;1.98;;
68690;SDS011;55675;49.588;8.640;2023-05-29T16:21:11;2.45;;;2.10;;
68690;SDS011;55675;49.588;8.640;2023-05-29T16:26:02;2.40;;;2.20;;
68690;SDS011;55675;49.588;8.640;2023-05-29T16:28:28;2.00;;;1.60;;
68690;SDS011;55675;49.588;8.640;2023-05-29T16:30:53;2.30;;;1.90;;
68690;SDS011;55675;49.588;8.640;2023-05-29T16:33:19;2.38;;;1.83;;
68690;SDS011;55675;49.588;8.640;2023-05-29T16:35:44;2.17;;;1.98;;
68690;SDS011;55675;49.588;8.640;2023-05-29T16:38:11;1.88;;;1.77;;
68690;SDS011;55675;49.588;8.640;2023-05-29T16:40:37;2.13;;;1.92;;
68690;SDS011;55675;49.588;8.640;2023-05-29T16:43:02;2.25;;;1.90;;
68690;SDS011;55675;49.588;8.640;2023-05-29T16:45:28;2.55;;;2.08;;
68690;SDS011;55675;49.588;8.640;2023-05-29T16:47:53;2.33;;;2.13;;
68690;SDS011;55675;49.588;8.640;2023-05-29T16:50:19;2.05;;;1.92;;
68690;SDS011;55675;49.588;8.640;2023-05-29T16:52:45;2.67;;;2.47;;
68690;SDS011;55675;49.588;8.640;2023-05-29T16:55:11;1.80;;;1.70;;
68690;SDS011;55675;49.588;8.640;2023-05-29T16:57:37;2.22;;;2.03;;
68690;SDS011;55675;49.588;8.640;2023-05-29T17:00:07;3.28;;;2.10;;
68690;SDS011;55675;49.588;8.640;2023-05-29T17:02:33;2.05;;;1.90;;
68690;SDS011;55675;49.588;8.640;2023-05-29T17:04:59;2.08;;;1.88;;
68690;SDS011;55675;49.588;8.640;2023-05-29T17:07:24;2.53;;;2.03;;
68690;SDS011;55675;49.588;8.640;2023-05-29T17:09:50;2.28;;;1.80;;
68690;SDS011;55675;49.588;8.640;2023-05-29T17:12:16;2.58;;;1.80;;
68690;SDS011;55675;49.588;8.640;2023-05-29T17:14:42;2.85;;;2.25;;
68690;SDS011;55675;49.588;8.640;2023-05-29T17:17:07;3.15;;;2.10;;
68690;SDS011;55675;49.588;8.640;2023-05-29T17:19:33;2.13;;;2.00;;
68690;SDS011;55675;49.588;8.640;2023-05-29T17:21:59;3.90;;;2.13;;
68690;SDS011;55675;49.588;8.640;2023-05-29T17:24:25;2.35;;;1.85;;
68690;SDS011;55675;49.588;8.640;2023-05-29T17:26:51;2.05;;;1.95;;
68690;SDS011;55675;49.588;8.640;2023-05-29T17:29:16;1.92;;;1.83;;
68690;SDS011;55675;49.588;8.640;2023-05-29T17:31:42;3.78;;;2.03;;
68690;SDS011;55675;49.588;8.640;2023-05-29T17:34:08;2.55;;;2.20;;
68690;SDS011;55675;49.588;8.640;2023-05-29T17:36:34;2.67;;;2.10;;
68690;SDS011;55675;49.588;8.640;2023-05-29T17:39:00;1.83;;;1.67;;
68690;SDS011;55675;49.588;8.640;2023-05-29T17:41:26;2.88;;;1.88;;
68690;SDS011;55675;49.588;8.640;2023-05-29T17:43:52;2.53;;;2.30;;
68690;SDS011;55675;49.588;8.640;2023-05-29T17:46:18;3.42;;;2.35;;
68690;SDS011;55675;49.588;8.640;2023-05-29T17:48:44;2.20;;;2.00;;
68690;SDS011;55675;49.588;8.640;2023-05-29T17:51:11;2.30;;;2.13;;
68690;SDS011;55675;49.588;8.640;2023-05-29T17:53:36;2.10;;;2.00;;
68690;SDS011;55675;49.588;8.640;2023-05-29T17:56:02;2.30;;;1.90;;
68690;SDS011;55675;49.588;8.640;2023-05-29T17:58:29;2.38;;;2.17;;
68690;SDS011;55675;49.588;8.640;2023-05-29T18:00:55;2.75;;;2.00;;